Where is San Martín, Castilla y Leon in Spain?

 

San Martín is situated in the region Castilla y Leon in Spain!

Search the name of a city:

San José, San Jose Norte, San Antonio de Palé, San Diego Tenango, San Pedro Escanela

Here you will find the location of San Martín on a map.
To see how it currently looks like outside, below are some pictures of the area from online web cameras.
You can also find the distance to the main cities in the region and to cities in the rest of Spain.

There are 9 cities named San Martín in Spain.

World Cities
Cities in Spain that are also found in other countries in the world.


Where is San Martín on the map?




Webcams near San Martín

Mogadouro, Valverde, Vale de Porco e Vilar de Rei › South-West: Mogadouro - Bragança - Airport.


Mogadouro, Valverde, Vale de Porco e Vilar de Rei › South-West: Mogadouro - Bragança - Airport - Day time
Current
Mogadouro, Valverde, Vale de Porco e Vilar de Rei › South-West: Mogadouro - Bragança - Airport - Current

Passos: Bragança - METAR: LPMI 170620Z VRB02KT 17/14 Q1015.


Passos: Bragança - METAR: LPMI 170620Z VRB02KT 17/14 Q1015 - Day time
Current
Passos: Bragança - METAR: LPMI 170620Z VRB02KT 17/14 Q1015 - Current

Guarda: Estrada dos Galegos - Galegos.


Guarda: Estrada dos Galegos - Galegos - Day time
Current
Guarda: Estrada dos Galegos - Galegos - Current

Webcams provided by webcams.travel


Distances

Where is San Martín relative to other places?

Top 10 cities in Castilla y Leon and distance from San Martín.

City#Populationkmmiles
Valladolid1315859196122
Burgos2168319307191
Salamanca315517510666
León4127480208129
Palencia577438229142
Zamora66316011370
Ponferrada761134172107
Segovia855902235146
Ávila949408192119
Miranda de Ebro1036386378235

Top 10 cities in Spain and distance from San Martín.

City # Populationkmmiles
Madrid13102644282175
Barcelona21570378763474
Valencia3769897583362
Sevilla4686647414257
Zaragoza5635509509316
Málaga6557875525326
Murcia7410364600373
Palma8378884827514
Las Palmas936541816321014
Bilbao10349270412256



Alerts and advice Spain

Advice and information about traveling and security in Spain.

With a travel advise, tourists can be informed about security risks during traveling or vacation in a foreign country. Be informed about the risks of kidnapping, armed robbery, bombings, natural disasters or war. Know which areas are unsafe in Spaino. Be vigilant, or avoid certain areas when on vacation in Spain.

Alerts and advice



Travel information Spain

Information on travel documents, visa applications and the cost of a visa.
Contact information of embassies in Spain.
Different types of travel insurance.

Travel information

Info

Statistics and Geographics

Spain is made up of 31496 cities in 17 regions.

The region Castilla y Leon has 6266 cities.

San Martín is number 4554 in the region Castilla y Leon.

The city is number 25472 in Spain.

Where is San Martín, Castilla y Leon in Spain?